sensor_id;sensor_type;location;lat;lon;timestamp;P1;durP1;ratioP1;P2;durP2;ratioP2
72590;SDS011;60625;51.212;5.952;2023-02-21T00:02:14;22.90;;;12.60;;
72590;SDS011;60625;51.212;5.952;2023-02-21T00:07:33;28.40;;;14.20;;
72590;SDS011;60625;51.212;5.952;2023-02-21T00:12:52;25.20;;;13.60;;
72590;SDS011;60625;51.212;5.952;2023-02-21T00:18:12;26.30;;;14.30;;
72590;SDS011;60625;51.212;5.952;2023-02-21T00:23:35;29.10;;;14.40;;
72590;SDS011;60625;51.212;5.952;2023-02-21T00:28:54;30.30;;;15.60;;
72590;SDS011;60625;51.212;5.952;2023-02-21T00:34:14;29.30;;;14.50;;
72590;SDS011;60625;51.212;5.952;2023-02-21T00:39:33;23.70;;;13.00;;
72590;SDS011;60625;51.212;5.952;2023-02-21T00:44:52;27.90;;;13.20;;
72590;SDS011;60625;51.212;5.952;2023-02-21T00:50:13;28.70;;;14.60;;
72590;SDS011;60625;51.212;5.952;2023-02-21T00:55:32;28.80;;;14.80;;
72590;SDS011;60625;51.212;5.952;2023-02-21T01:00:52;33.00;;;15.70;;
72590;SDS011;60625;51.212;5.952;2023-02-21T01:06:11;35.50;;;16.20;;
72590;SDS011;60625;51.212;5.952;2023-02-21T01:11:31;32.50;;;15.10;;
72590;SDS011;60625;51.212;5.952;2023-02-21T01:16:51;33.50;;;16.40;;
72590;SDS011;60625;51.212;5.952;2023-02-21T01:22:12;39.10;;;17.80;;
72590;SDS011;60625;51.212;5.952;2023-02-21T01:27:32;40.60;;;17.60;;
72590;SDS011;60625;51.212;5.952;2023-02-21T01:32:51;39.10;;;18.80;;
72590;SDS011;60625;51.212;5.952;2023-02-21T01:38:10;33.60;;;17.40;;
72590;SDS011;60625;51.212;5.952;2023-02-21T01:43:29;34.40;;;15.20;;
72590;SDS011;60625;51.212;5.952;2023-02-21T01:48:51;38.30;;;19.10;;
72590;SDS011;60625;51.212;5.952;2023-02-21T01:54:12;39.30;;;17.80;;
72590;SDS011;60625;51.212;5.952;2023-02-21T01:59:31;40.20;;;18.60;;
72590;SDS011;60625;51.212;5.952;2023-02-21T02:04:51;35.40;;;17.30;;
72590;SDS011;60625;51.212;5.952;2023-02-21T02:10:12;41.10;;;18.70;;
72590;SDS011;60625;51.212;5.952;2023-02-21T02:15:42;37.20;;;18.40;;
72590;SDS011;60625;51.212;5.952;2023-02-21T02:37:44;40.90;;;19.00;;
72590;SDS011;60625;51.212;5.952;2023-02-21T02:48:21;37.90;;;19.00;;
72590;SDS011;60625;51.212;5.952;2023-02-21T02:53:36;38.00;;;19.20;;
72590;SDS011;60625;51.212;5.952;2023-02-21T03:04:09;43.10;;;19.50;;
72590;SDS011;60625;51.212;5.952;2023-02-21T03:15:26;48.60;;;22.00;;
72590;SDS011;60625;51.212;5.952;2023-02-21T03:20:33;47.40;;;20.90;;
72590;SDS011;60625;51.212;5.952;2023-02-21T03:25:36;42.50;;;19.20;;
72590;SDS011;60625;51.212;5.952;2023-02-21T03:30:40;41.90;;;18.90;;
72590;SDS011;60625;51.212;5.952;2023-02-21T03:35:42;39.40;;;19.50;;
72590;SDS011;60625;51.212;5.952;2023-02-21T03:40:43;43.40;;;20.20;;
72590;SDS011;60625;51.212;5.952;2023-02-21T03:45:44;45.20;;;19.40;;
72590;SDS011;60625;51.212;5.952;2023-02-21T03:50:47;40.10;;;16.20;;
72590;SDS011;60625;51.212;5.952;2023-02-21T03:55:48;45.50;;;18.30;;
72590;SDS011;60625;51.212;5.952;2023-02-21T04:00:54;45.20;;;18.70;;
72590;SDS011;60625;51.212;5.952;2023-02-21T04:05:55;41.20;;;16.80;;
72590;SDS011;60625;51.212;5.952;2023-02-21T04:10:56;44.50;;;19.00;;
72590;SDS011;60625;51.212;5.952;2023-02-21T04:16:00;47.00;;;18.90;;
72590;SDS011;60625;51.212;5.952;2023-02-21T04:21:01;42.30;;;16.20;;
72590;SDS011;60625;51.212;5.952;2023-02-21T04:26:02;41.20;;;16.00;;
72590;SDS011;60625;51.212;5.952;2023-02-21T04:31:14;44.10;;;17.80;;
72590;SDS011;60625;51.212;5.952;2023-02-21T04:36:15;39.40;;;16.80;;
72590;SDS011;60625;51.212;5.952;2023-02-21T04:41:16;42.20;;;17.60;;
72590;SDS011;60625;51.212;5.952;2023-02-21T04:46:17;45.80;;;18.70;;
72590;SDS011;60625;51.212;5.952;2023-02-21T04:51:21;41.10;;;17.50;;
72590;SDS011;60625;51.212;5.952;2023-02-21T04:56:24;40.70;;;17.10;;
72590;SDS011;60625;51.212;5.952;2023-02-21T05:01:28;40.40;;;17.40;;
72590;SDS011;60625;51.212;5.952;2023-02-21T05:06:30;36.10;;;14.40;;
72590;SDS011;60625;51.212;5.952;2023-02-21T05:11:33;38.20;;;15.20;;
72590;SDS011;60625;51.212;5.952;2023-02-21T05:16:34;41.70;;;16.40;;
72590;SDS011;60625;51.212;5.952;2023-02-21T05:21:35;45.30;;;18.30;;
72590;SDS011;60625;51.212;5.952;2023-02-21T05:26:37;34.60;;;14.50;;
72590;SDS011;60625;51.212;5.952;2023-02-21T05:31:38;45.40;;;16.50;;
72590;SDS011;60625;51.212;5.952;2023-02-21T05:36:39;40.20;;;15.60;;
72590;SDS011;60625;51.212;5.952;2023-02-21T05:41:45;43.60;;;17.40;;
72590;SDS011;60625;51.212;5.952;2023-02-21T05:46:49;35.50;;;15.10;;
72590;SDS011;60625;51.212;5.952;2023-02-21T05:51:49;34.80;;;16.20;;
72590;SDS011;60625;51.212;5.952;2023-02-21T05:56:50;39.90;;;15.60;;
72590;SDS011;60625;51.212;5.952;2023-02-21T06:01:52;38.60;;;14.20;;
72590;SDS011;60625;51.212;5.952;2023-02-21T06:06:52;38.10;;;16.20;;
72590;SDS011;60625;51.212;5.952;2023-02-21T06:11:55;36.40;;;15.20;;
72590;SDS011;60625;51.212;5.952;2023-02-21T06:16:56;37.30;;;15.10;;
72590;SDS011;60625;51.212;5.952;2023-02-21T06:21:57;41.10;;;15.40;;
72590;SDS011;60625;51.212;5.952;2023-02-21T06:26:57;35.50;;;14.50;;
72590;SDS011;60625;51.212;5.952;2023-02-21T06:31:58;38.10;;;16.10;;
72590;SDS011;60625;51.212;5.952;2023-02-21T06:37:00;38.60;;;14.40;;
72590;SDS011;60625;51.212;5.952;2023-02-21T06:42:00;42.90;;;16.80;;
72590;SDS011;60625;51.212;5.952;2023-02-21T06:47:01;40.30;;;16.70;;
72590;SDS011;60625;51.212;5.952;2023-02-21T06:52:01;33.70;;;14.20;;
72590;SDS011;60625;51.212;5.952;2023-02-21T06:57:02;37.90;;;14.30;;
72590;SDS011;60625;51.212;5.952;2023-02-21T07:02:02;34.20;;;13.90;;
72590;SDS011;60625;51.212;5.952;2023-02-21T07:07:04;35.70;;;14.10;;
72590;SDS011;60625;51.212;5.952;2023-02-21T07:12:04;36.30;;;15.20;;
72590;SDS011;60625;51.212;5.952;2023-02-21T07:17:05;32.00;;;12.80;;
72590;SDS011;60625;51.212;5.952;2023-02-21T07:22:06;37.10;;;14.30;;
72590;SDS011;60625;51.212;5.952;2023-02-21T07:27:07;33.20;;;13.30;;
72590;SDS011;60625;51.212;5.952;2023-02-21T07:32:08;32.90;;;13.20;;
72590;SDS011;60625;51.212;5.952;2023-02-21T07:37:09;34.10;;;13.60;;
72590;SDS011;60625;51.212;5.952;2023-02-21T07:42:10;33.30;;;13.80;;
72590;SDS011;60625;51.212;5.952;2023-02-21T07:47:12;28.10;;;10.90;;
72590;SDS011;60625;51.212;5.952;2023-02-21T07:52:13;28.30;;;11.70;;
72590;SDS011;60625;51.212;5.952;2023-02-21T07:57:15;29.20;;;11.50;;
72590;SDS011;60625;51.212;5.952;2023-02-21T08:02:17;22.00;;;9.20;;
72590;SDS011;60625;51.212;5.952;2023-02-21T08:07:18;25.30;;;9.30;;
72590;SDS011;60625;51.212;5.952;2023-02-21T08:12:18;22.80;;;9.80;;
72590;SDS011;60625;51.212;5.952;2023-02-21T08:17:19;24.00;;;10.00;;
72590;SDS011;60625;51.212;5.952;2023-02-21T08:22:19;20.90;;;8.90;;
72590;SDS011;60625;51.212;5.952;2023-02-21T08:27:20;21.60;;;8.30;;
72590;SDS011;60625;51.212;5.952;2023-02-21T08:32:21;19.60;;;8.70;;
72590;SDS011;60625;51.212;5.952;2023-02-21T08:37:21;18.90;;;8.20;;
72590;SDS011;60625;51.212;5.952;2023-02-21T08:42:22;18.20;;;7.40;;
72590;SDS011;60625;51.212;5.952;2023-02-21T08:47:22;20.50;;;8.00;;
72590;SDS011;60625;51.212;5.952;2023-02-21T08:52:23;21.00;;;8.10;;
72590;SDS011;60625;51.212;5.952;2023-02-21T08:57:23;18.60;;;7.90;;
72590;SDS011;60625;51.212;5.952;2023-02-21T09:02:24;17.90;;;8.00;;
72590;SDS011;60625;51.212;5.952;2023-02-21T09:07:25;17.70;;;7.50;;
72590;SDS011;60625;51.212;5.952;2023-02-21T09:12:27;21.40;;;9.10;;
72590;SDS011;60625;51.212;5.952;2023-02-21T09:17:28;18.40;;;8.30;;
72590;SDS011;60625;51.212;5.952;2023-02-21T09:22:33;19.20;;;7.60;;
72590;SDS011;60625;51.212;5.952;2023-02-21T09:27:34;19.70;;;7.90;;
72590;SDS011;60625;51.212;5.952;2023-02-21T09:32:38;21.40;;;8.50;;
72590;SDS011;60625;51.212;5.952;2023-02-21T09:37:39;19.80;;;8.40;;
72590;SDS011;60625;51.212;5.952;2023-02-21T09:42:41;16.00;;;7.70;;
72590;SDS011;60625;51.212;5.952;2023-02-21T09:47:42;19.70;;;8.40;;
72590;SDS011;60625;51.212;5.952;2023-02-21T09:52:44;20.50;;;8.30;;
72590;SDS011;60625;51.212;5.952;2023-02-21T09:57:46;20.70;;;8.00;;
72590;SDS011;60625;51.212;5.952;2023-02-21T10:08:38;17.80;;;7.60;;
72590;SDS011;60625;51.212;5.952;2023-02-21T10:14:05;17.50;;;7.80;;
72590;SDS011;60625;51.212;5.952;2023-02-21T10:19:30;19.00;;;8.40;;
72590;SDS011;60625;51.212;5.952;2023-02-21T10:24:35;19.50;;;8.20;;
72590;SDS011;60625;51.212;5.952;2023-02-21T10:35:04;17.80;;;8.20;;
72590;SDS011;60625;51.212;5.952;2023-02-21T10:45:49;13.60;;;6.50;;
72590;SDS011;60625;51.212;5.952;2023-02-21T11:11:41;12.10;;;5.70;;
72590;SDS011;60625;51.212;5.952;2023-02-21T11:16:42;16.80;;;7.10;;
72590;SDS011;60625;51.212;5.952;2023-02-21T11:21:42;16.00;;;6.80;;
72590;SDS011;60625;51.212;5.952;2023-02-21T11:26:48;15.90;;;7.10;;
72590;SDS011;60625;51.212;5.952;2023-02-21T11:31:52;17.70;;;7.40;;
72590;SDS011;60625;51.212;5.952;2023-02-21T11:37:01;21.20;;;8.80;;
72590;SDS011;60625;51.212;5.952;2023-02-21T11:42:09;19.60;;;8.00;;
72590;SDS011;60625;51.212;5.952;2023-02-21T11:47:30;18.50;;;8.90;;
72590;SDS011;60625;51.212;5.952;2023-02-21T11:52:48;21.60;;;9.40;;
72590;SDS011;60625;51.212;5.952;2023-02-21T11:58:21;20.60;;;8.90;;
72590;SDS011;60625;51.212;5.952;2023-02-21T12:09:22;26.20;;;10.80;;
72590;SDS011;60625;51.212;5.952;2023-02-21T12:15:05;23.30;;;10.10;;
72590;SDS011;60625;51.212;5.952;2023-02-21T12:20:41;24.40;;;10.40;;
72590;SDS011;60625;51.212;5.952;2023-02-21T12:31:36;23.00;;;10.00;;
72590;SDS011;60625;51.212;5.952;2023-02-21T12:43:03;26.60;;;11.90;;
72590;SDS011;60625;51.212;5.952;2023-02-21T12:48:26;25.90;;;12.20;;
72590;SDS011;60625;51.212;5.952;2023-02-21T12:58:58;21.50;;;9.40;;
72590;SDS011;60625;51.212;5.952;2023-02-21T13:04:12;22.20;;;8.80;;
72590;SDS011;60625;51.212;5.952;2023-02-21T13:09:33;18.50;;;8.60;;
72590;SDS011;60625;51.212;5.952;2023-02-21T13:19:55;21.60;;;10.20;;
72590;SDS011;60625;51.212;5.952;2023-02-21T13:30:38;20.40;;;9.60;;
72590;SDS011;60625;51.212;5.952;2023-02-21T13:35:41;22.00;;;10.10;;
72590;SDS011;60625;51.212;5.952;2023-02-21T13:40:51;23.30;;;10.80;;
72590;SDS011;60625;51.212;5.952;2023-02-21T13:45:54;23.80;;;10.50;;
72590;SDS011;60625;51.212;5.952;2023-02-21T13:50:59;23.60;;;9.60;;
72590;SDS011;60625;51.212;5.952;2023-02-21T14:06:34;25.60;;;11.90;;
72590;SDS011;60625;51.212;5.952;2023-02-21T14:11:42;24.50;;;10.70;;
72590;SDS011;60625;51.212;5.952;2023-02-21T14:16:47;27.60;;;11.80;;
72590;SDS011;60625;51.212;5.952;2023-02-21T14:21:57;26.30;;;12.20;;
72590;SDS011;60625;51.212;5.952;2023-02-21T14:37:31;22.10;;;11.10;;
72590;SDS011;60625;51.212;5.952;2023-02-21T14:48:38;20.10;;;9.50;;
72590;SDS011;60625;51.212;5.952;2023-02-21T15:10:45;21.70;;;10.00;;
72590;SDS011;60625;51.212;5.952;2023-02-21T15:15:54;25.80;;;11.30;;
72590;SDS011;60625;51.212;5.952;2023-02-21T15:21:03;25.50;;;10.00;;
72590;SDS011;60625;51.212;5.952;2023-02-21T15:26:24;21.00;;;10.10;;
72590;SDS011;60625;51.212;5.952;2023-02-21T15:31:26;23.10;;;9.80;;
72590;SDS011;60625;51.212;5.952;2023-02-21T15:36:27;23.60;;;10.80;;
72590;SDS011;60625;51.212;5.952;2023-02-21T15:41:33;24.90;;;11.10;;
72590;SDS011;60625;51.212;5.952;2023-02-21T15:47:06;25.10;;;12.70;;
72590;SDS011;60625;51.212;5.952;2023-02-21T15:57:42;24.20;;;10.90;;
72590;SDS011;60625;51.212;5.952;2023-02-21T16:02:44;26.50;;;10.70;;
72590;SDS011;60625;51.212;5.952;2023-02-21T16:07:44;20.10;;;9.00;;
72590;SDS011;60625;51.212;5.952;2023-02-21T16:12:59;24.40;;;10.40;;
72590;SDS011;60625;51.212;5.952;2023-02-21T16:18:03;19.90;;;9.00;;
72590;SDS011;60625;51.212;5.952;2023-02-21T16:28:39;21.80;;;9.10;;
72590;SDS011;60625;51.212;5.952;2023-02-21T16:33:40;22.80;;;10.40;;
72590;SDS011;60625;51.212;5.952;2023-02-21T16:38:40;20.50;;;9.50;;
72590;SDS011;60625;51.212;5.952;2023-02-21T16:43:41;23.50;;;9.70;;
72590;SDS011;60625;51.212;5.952;2023-02-21T16:48:42;26.80;;;10.90;;
72590;SDS011;60625;51.212;5.952;2023-02-21T16:53:43;18.30;;;8.50;;
72590;SDS011;60625;51.212;5.952;2023-02-21T16:58:48;20.50;;;10.10;;
72590;SDS011;60625;51.212;5.952;2023-02-21T17:03:49;24.80;;;11.40;;
72590;SDS011;60625;51.212;5.952;2023-02-21T17:08:50;23.90;;;11.20;;
72590;SDS011;60625;51.212;5.952;2023-02-21T17:13:51;28.30;;;12.00;;
72590;SDS011;60625;51.212;5.952;2023-02-21T17:18:51;23.40;;;11.30;;
72590;SDS011;60625;51.212;5.952;2023-02-21T17:23:52;27.80;;;13.00;;
72590;SDS011;60625;51.212;5.952;2023-02-21T17:28:53;28.20;;;12.50;;
72590;SDS011;60625;51.212;5.952;2023-02-21T17:33:53;30.10;;;12.80;;
72590;SDS011;60625;51.212;5.952;2023-02-21T17:38:55;30.10;;;13.50;;
72590;SDS011;60625;51.212;5.952;2023-02-21T17:43:56;33.30;;;14.90;;
72590;SDS011;60625;51.212;5.952;2023-02-21T17:48:57;29.30;;;14.50;;
72590;SDS011;60625;51.212;5.952;2023-02-21T17:53:57;26.00;;;12.20;;
72590;SDS011;60625;51.212;5.952;2023-02-21T17:58:58;28.90;;;13.10;;
72590;SDS011;60625;51.212;5.952;2023-02-21T18:03:59;29.00;;;11.90;;
72590;SDS011;60625;51.212;5.952;2023-02-21T18:09:01;26.10;;;11.60;;
72590;SDS011;60625;51.212;5.952;2023-02-21T18:14:02;24.90;;;11.60;;
72590;SDS011;60625;51.212;5.952;2023-02-21T18:19:04;29.70;;;12.60;;
72590;SDS011;60625;51.212;5.952;2023-02-21T18:24:06;29.30;;;13.20;;
72590;SDS011;60625;51.212;5.952;2023-02-21T18:29:11;27.70;;;13.50;;
72590;SDS011;60625;51.212;5.952;2023-02-21T18:34:11;31.80;;;14.30;;
72590;SDS011;60625;51.212;5.952;2023-02-21T18:39:15;31.90;;;13.50;;
72590;SDS011;60625;51.212;5.952;2023-02-21T18:44:16;30.00;;;13.80;;
72590;SDS011;60625;51.212;5.952;2023-02-21T18:49:16;29.70;;;14.10;;
72590;SDS011;60625;51.212;5.952;2023-02-21T18:54:18;26.90;;;12.90;;
72590;SDS011;60625;51.212;5.952;2023-02-21T18:59:21;33.30;;;14.20;;
72590;SDS011;60625;51.212;5.952;2023-02-21T19:04:21;30.90;;;14.00;;
72590;SDS011;60625;51.212;5.952;2023-02-21T19:09:22;25.90;;;12.30;;
72590;SDS011;60625;51.212;5.952;2023-02-21T19:14:22;30.40;;;14.70;;
72590;SDS011;60625;51.212;5.952;2023-02-21T19:19:22;33.60;;;14.50;;
72590;SDS011;60625;51.212;5.952;2023-02-21T19:24:24;29.10;;;13.40;;
72590;SDS011;60625;51.212;5.952;2023-02-21T19:29:24;27.20;;;12.70;;
72590;SDS011;60625;51.212;5.952;2023-02-21T19:34:25;27.60;;;12.20;;
72590;SDS011;60625;51.212;5.952;2023-02-21T19:39:26;30.00;;;13.80;;
72590;SDS011;60625;51.212;5.952;2023-02-21T19:44:26;35.00;;;15.20;;
72590;SDS011;60625;51.212;5.952;2023-02-21T19:49:28;30.80;;;13.50;;
72590;SDS011;60625;51.212;5.952;2023-02-21T19:54:29;29.80;;;13.80;;
72590;SDS011;60625;51.212;5.952;2023-02-21T19:59:30;30.30;;;12.80;;
72590;SDS011;60625;51.212;5.952;2023-02-21T20:04:31;32.00;;;12.90;;
72590;SDS011;60625;51.212;5.952;2023-02-21T20:09:32;29.70;;;13.30;;
72590;SDS011;60625;51.212;5.952;2023-02-21T20:14:33;29.80;;;13.60;;
72590;SDS011;60625;51.212;5.952;2023-02-21T20:19:33;30.60;;;13.80;;
72590;SDS011;60625;51.212;5.952;2023-02-21T20:24:34;33.00;;;14.40;;
72590;SDS011;60625;51.212;5.952;2023-02-21T20:29:35;29.10;;;13.60;;
72590;SDS011;60625;51.212;5.952;2023-02-21T20:34:37;28.80;;;12.80;;
72590;SDS011;60625;51.212;5.952;2023-02-21T20:39:38;34.40;;;14.60;;
72590;SDS011;60625;51.212;5.952;2023-02-21T20:44:39;31.00;;;13.50;;
72590;SDS011;60625;51.212;5.952;2023-02-21T20:49:44;30.40;;;13.40;;
72590;SDS011;60625;51.212;5.952;2023-02-21T20:54:45;30.40;;;14.70;;
72590;SDS011;60625;51.212;5.952;2023-02-21T20:59:45;30.10;;;13.70;;
72590;SDS011;60625;51.212;5.952;2023-02-21T21:04:46;29.50;;;13.20;;
72590;SDS011;60625;51.212;5.952;2023-02-21T21:09:48;33.00;;;14.70;;
72590;SDS011;60625;51.212;5.952;2023-02-21T21:14:50;42.10;;;18.60;;
72590;SDS011;60625;51.212;5.952;2023-02-21T21:19:54;44.10;;;18.10;;
72590;SDS011;60625;51.212;5.952;2023-02-21T21:24:55;54.40;;;21.90;;
72590;SDS011;60625;51.212;5.952;2023-02-21T21:29:55;50.50;;;20.70;;
72590;SDS011;60625;51.212;5.952;2023-02-21T21:34:56;45.30;;;20.10;;
72590;SDS011;60625;51.212;5.952;2023-02-21T21:39:57;49.70;;;21.00;;
72590;SDS011;60625;51.212;5.952;2023-02-21T21:44:57;44.30;;;18.00;;
72590;SDS011;60625;51.212;5.952;2023-02-21T21:49:58;42.20;;;18.30;;
72590;SDS011;60625;51.212;5.952;2023-02-21T21:55:01;35.90;;;14.00;;
72590;SDS011;60625;51.212;5.952;2023-02-21T22:00:03;41.00;;;17.20;;
72590;SDS011;60625;51.212;5.952;2023-02-21T22:05:12;43.00;;;18.30;;
72590;SDS011;60625;51.212;5.952;2023-02-21T22:10:14;38.00;;;17.00;;
72590;SDS011;60625;51.212;5.952;2023-02-21T22:15:17;42.00;;;20.00;;
72590;SDS011;60625;51.212;5.952;2023-02-21T22:20:20;45.90;;;20.50;;
72590;SDS011;60625;51.212;5.952;2023-02-21T22:25:28;59.00;;;23.00;;
72590;SDS011;60625;51.212;5.952;2023-02-21T22:30:29;54.40;;;20.90;;
72590;SDS011;60625;51.212;5.952;2023-02-21T22:35:31;57.10;;;22.00;;
72590;SDS011;60625;51.212;5.952;2023-02-21T22:40:32;85.40;;;31.30;;
72590;SDS011;60625;51.212;5.952;2023-02-21T22:45:36;95.00;;;32.00;;
72590;SDS011;60625;51.212;5.952;2023-02-21T22:50:37;111.40;;;38.70;;
72590;SDS011;60625;51.212;5.952;2023-02-21T22:55:38;126.10;;;42.90;;
72590;SDS011;60625;51.212;5.952;2023-02-21T23:00:39;115.30;;;38.30;;
72590;SDS011;60625;51.212;5.952;2023-02-21T23:05:45;89.50;;;32.10;;
72590;SDS011;60625;51.212;5.952;2023-02-21T23:10:48;97.80;;;32.60;;
72590;SDS011;60625;51.212;5.952;2023-02-21T23:15:52;96.90;;;28.40;;
72590;SDS011;60625;51.212;5.952;2023-02-21T23:20:56;115.10;;;36.60;;
72590;SDS011;60625;51.212;5.952;2023-02-21T23:25:57;93.70;;;30.70;;
72590;SDS011;60625;51.212;5.952;2023-02-21T23:30:58;97.60;;;33.40;;
72590;SDS011;60625;51.212;5.952;2023-02-21T23:35:59;73.80;;;26.70;;
72590;SDS011;60625;51.212;5.952;2023-02-21T23:40:59;70.50;;;25.40;;
72590;SDS011;60625;51.212;5.952;2023-02-21T23:46:03;79.90;;;26.80;;
72590;SDS011;60625;51.212;5.952;2023-02-21T23:51:05;92.40;;;29.80;;
72590;SDS011;60625;51.212;5.952;2023-02-21T23:56:11;93.30;;;27.20;;
